Terminal Aerodrome Forecast
Issued by NWS

Home | Current Version | Previous Version | Text Only | Print | Product List | Glossary On
Versions: 1 2 3 4 5 6 7 8 9 10 11 12 13 14 15 16 17 18 19 20 21 22 23 24
000
FTUS43 KLSX 010800 AAA
TAFUIN
TAF AMD
KUIN 010835Z 0109/0206 22010KT P6SM SCT040 BKN100
      TEMPO 0110/0113 VRB20KT 5SM -TSRA BR BKN035CB
     FM011300 21014KT P6SM BKN035
     FM011800 22013KT P6SM BKN045
     FM020000 VRB04KT P6SM VCTS BKN050CB=

USA.gov is the U.S. government's official web portal to all federal, state and local government web resources and services.